createdAt,value
2023-09-24T00:00:22.393Z,101249.00
2023-09-24T00:02:50.749Z,101248.56
2023-09-24T00:05:17.645Z,101255.19
2023-09-24T00:07:44.379Z,101255.03
2023-09-24T00:10:11.496Z,101261.00
2023-09-24T00:12:39.559Z,101260.28
2023-09-24T00:15:06.815Z,101262.81
2023-09-24T00:17:33.565Z,101270.97
2023-09-24T00:20:00.520Z,101270.47
2023-09-24T00:22:28.166Z,101272.25
2023-09-24T00:24:54.904Z,101266.13
2023-09-24T00:27:21.561Z,101274.09
2023-09-24T00:29:48.316Z,101277.66
2023-09-24T00:32:15.082Z,101276.22
2023-09-24T00:34:41.696Z,101285.84
2023-09-24T00:37:08.345Z,101287.00
2023-09-24T00:39:37.422Z,101281.44
2023-09-24T00:42:06.277Z,101285.50
2023-09-24T00:44:32.962Z,101285.84
2023-09-24T00:46:59.640Z,101289.88
2023-09-24T00:49:26.269Z,101296.19
2023-09-24T00:51:53.892Z,101299.09
2023-09-24T00:54:20.706Z,101300.94
2023-09-24T00:56:47.500Z,101300.53
2023-09-24T00:59:16.029Z,101310.44
2023-09-24T01:01:43.100Z,101316.38
2023-09-24T01:04:12.486Z,101306.72
2023-09-24T01:06:40.325Z,101313.34
2023-09-24T01:09:09.937Z,101314.03
2023-09-24T01:11:39.386Z,101309.00
2023-09-24T01:14:06.727Z,101310.09
2023-09-24T01:16:33.581Z,101317.44
2023-09-24T01:19:02.042Z,101315.63
2023-09-24T01:21:29.242Z,101325.72
2023-09-24T01:24:00.388Z,101320.16
2023-09-24T01:26:27.298Z,101324.66
2023-09-24T01:28:53.928Z,101330.13
2023-09-24T01:31:21.071Z,101333.59
2023-09-24T01:33:51.265Z,101336.78
2023-09-24T01:36:20.442Z,101337.44
2023-09-24T01:38:48.946Z,101349.56
2023-09-24T01:41:15.830Z,101345.88
2023-09-24T01:43:45.444Z,101347.84
2023-09-24T01:46:14.719Z,101354.84
2023-09-24T01:48:42.430Z,101357.91
2023-09-24T01:51:12.114Z,101361.09
2023-09-24T01:53:40.154Z,101366.28
2023-09-24T01:56:09.249Z,101364.56
2023-09-24T01:58:39.281Z,101359.78
2023-09-24T02:01:07.381Z,101369.88
2023-09-24T02:03:34.105Z,101371.78
2023-09-24T02:06:00.849Z,101378.69
2023-09-24T02:08:27.551Z,101374.28
2023-09-24T02:10:54.179Z,101379.63
2023-09-24T02:13:22.038Z,101380.44
2023-09-24T02:15:49.664Z,101375.34
2023-09-24T02:18:19.398Z,101385.09
2023-09-24T02:20:49.783Z,101380.34
2023-09-24T02:23:18.420Z,101379.72
2023-09-24T02:25:46.489Z,101392.25
2023-09-24T02:28:14.192Z,101391.59
2023-09-24T02:30:41.919Z,101387.59
2023-09-24T02:33:08.875Z,101387.28
2023-09-24T02:35:35.906Z,101400.34
2023-09-24T02:38:02.986Z,101401.66
2023-09-24T02:40:29.716Z,101398.06
2023-09-24T02:42:58.005Z,101392.59
2023-09-24T02:45:25.932Z,101396.22
2023-09-24T02:47:53.190Z,101411.28
2023-09-24T02:50:24.467Z,101407.28
2023-09-24T02:52:54.262Z,101412.72
2023-09-24T02:55:21.378Z,101417.38
2023-09-24T02:57:47.958Z,101425.25
2023-09-24T03:00:27.673Z,101426.44
2023-09-24T03:02:55.404Z,101421.38
2023-09-24T03:05:25.780Z,101425.97
2023-09-24T03:07:58.222Z,101421.25
2023-09-24T03:10:25.708Z,101427.88
2023-09-24T03:12:52.531Z,101427.16
2023-09-24T03:15:21.428Z,101427.09
2023-09-24T03:17:48.627Z,101428.16
2023-09-24T03:20:16.414Z,101431.09
2023-09-24T03:22:53.303Z,101435.59
2023-09-24T03:25:20.631Z,101436.19
2023-09-24T03:27:48.492Z,101446.16
2023-09-24T03:30:18.706Z,101447.47
2023-09-24T03:32:47.668Z,101447.72
2023-09-24T03:35:15.684Z,101448.91
2023-09-24T03:37:47.094Z,101444.66
2023-09-24T03:40:16.371Z,101454.06
2023-09-24T03:42:43.095Z,101454.50
2023-09-24T03:45:10.946Z,101452.25
2023-09-24T03:47:38.743Z,101458.22
2023-09-24T03:50:06.624Z,101466.72
2023-09-24T03:52:33.744Z,101464.72
2023-09-24T03:55:04.116Z,101465.72
2023-09-24T03:57:30.805Z,101480.25
2023-09-24T03:59:58.452Z,101483.38
2023-09-24T04:02:25.782Z,101482.59
2023-09-24T04:04:52.618Z,101490.34
2023-09-24T04:07:19.566Z,101481.03
2023-09-24T04:09:46.238Z,101489.25
2023-09-24T04:12:14.329Z,101485.22
2023-09-24T04:14:41.151Z,101490.69
2023-09-24T04:17:08.144Z,101487.34
2023-09-24T04:19:35.181Z,101498.63
2023-09-24T04:22:01.826Z,101502.16
2023-09-24T04:24:28.421Z,101509.66
2023-09-24T04:26:55.863Z,101505.22
2023-09-24T04:29:22.563Z,101510.88
2023-09-24T04:31:49.140Z,101512.13
2023-09-24T04:34:16.029Z,101517.59
2023-09-24T04:36:43.574Z,101524.13
2023-09-24T04:39:14.010Z,101523.56
2023-09-24T04:41:43.518Z,101525.44
2023-09-24T04:44:10.390Z,101533.25
2023-09-24T04:46:37.016Z,101526.38
2023-09-24T04:49:06.829Z,101526.63
2023-09-24T04:51:35.896Z,101538.63
2023-09-24T04:54:02.869Z,101538.97
2023-09-24T04:56:29.607Z,101551.41
2023-09-24T04:58:56.290Z,101551.69
2023-09-24T05:01:23.055Z,101560.13
2023-09-24T05:03:51.471Z,101566.19
2023-09-24T05:06:19.441Z,101563.88
2023-09-24T05:08:46.850Z,101570.31
2023-09-24T05:11:13.649Z,101572.16
2023-09-24T05:13:41.419Z,101580.22
2023-09-24T05:16:09.921Z,101583.19
2023-09-24T05:18:36.701Z,101592.09
2023-09-24T05:21:07.377Z,101594.31
2023-09-24T05:23:34.560Z,101595.88
2023-09-24T05:26:01.296Z,101599.22
2023-09-24T05:28:27.960Z,101606.41
2023-09-24T05:30:54.965Z,101610.06
2023-09-24T05:33:21.940Z,101612.44
2023-09-24T05:35:53.160Z,101615.13
2023-09-24T05:38:20.849Z,101625.59
2023-09-24T05:40:47.540Z,101625.19
2023-09-24T05:43:14.473Z,101629.66
2023-09-24T05:45:47.255Z,101633.19
2023-09-24T05:48:15.331Z,101641.16
2023-09-24T05:50:42.996Z,101644.25
2023-09-24T05:53:10.663Z,101652.66
2023-09-24T05:55:37.711Z,101658.50
2023-09-24T05:58:07.931Z,101657.19
2023-09-24T06:00:38.170Z,101655.84
2023-09-24T06:03:05.194Z,101659.72
2023-09-24T06:05:32.061Z,101663.94
2023-09-24T06:07:58.795Z,101675.66
2023-09-24T06:10:25.520Z,101670.47
2023-09-24T06:12:54.252Z,101674.47
2023-09-24T06:15:20.989Z,101671.81
2023-09-24T06:17:49.973Z,101680.56
2023-09-24T06:20:17.344Z,101681.28
2023-09-24T06:22:44.458Z,101685.38
2023-09-24T06:25:11.006Z,101677.44
2023-09-24T06:27:37.754Z,101686.22
2023-09-24T06:30:06.072Z,101689.28
2023-09-24T06:32:33.435Z,101694.88
2023-09-24T06:35:00.192Z,101694.44
2023-09-24T06:37:26.858Z,101698.72
2023-09-24T06:39:53.445Z,101694.69
2023-09-24T06:42:20.043Z,101701.34
2023-09-24T06:44:46.710Z,101696.63
2023-09-24T06:47:13.351Z,101705.53
2023-09-24T06:49:39.964Z,101703.56
2023-09-24T06:52:06.642Z,101710.56
2023-09-24T06:54:33.354Z,101702.75
2023-09-24T06:57:00.056Z,101706.22
2023-09-24T06:59:27.157Z,101708.72
2023-09-24T07:01:56.967Z,101706.16
2023-09-24T07:04:23.789Z,101710.75
2023-09-24T07:06:51.814Z,101714.97
2023-09-24T07:09:18.823Z,101719.28
2023-09-24T07:11:46.273Z,101717.19
2023-09-24T07:14:13.128Z,101723.97
2023-09-24T07:16:39.704Z,101730.78
2023-09-24T07:19:06.379Z,101719.81
2023-09-24T07:21:36.730Z,101735.84
2023-09-24T07:24:04.930Z,101732.81
2023-09-24T07:26:31.810Z,101732.81
2023-09-24T07:28:58.661Z,101737.72
2023-09-24T07:31:29.715Z,101743.97
2023-09-24T07:33:59.000Z,101737.38
2023-09-24T07:38:55.346Z,101747.38
2023-09-24T07:41:22.737Z,101750.16
2023-09-24T07:43:49.850Z,101747.22
2023-09-24T07:46:16.986Z,101749.59
2023-09-24T07:48:44.356Z,101752.91
2023-09-24T07:51:12.401Z,101761.88
2023-09-24T07:53:39.658Z,101771.28
2023-09-24T07:56:12.613Z,101770.97
2023-09-24T07:58:40.135Z,101771.91
2023-09-24T08:01:07.607Z,101767.53
2023-09-24T08:03:34.817Z,101770.56
2023-09-24T08:06:02.311Z,101772.41
2023-09-24T08:08:43.710Z,101774.00
2023-09-24T08:11:16.142Z,101769.81
2023-09-24T08:13:42.734Z,101781.50
2023-09-24T08:16:09.479Z,101782.06
2023-09-24T08:18:36.369Z,101783.44
2023-09-24T08:21:03.143Z,101790.00
2023-09-24T08:23:29.731Z,101791.66
2023-09-24T08:25:56.312Z,101790.19
2023-09-24T08:28:22.938Z,101786.31
2023-09-24T08:30:49.591Z,101794.25
2023-09-24T08:33:16.314Z,101784.56
2023-09-24T08:35:43.134Z,101787.75
2023-09-24T08:38:10.525Z,101784.09
2023-09-24T08:40:39.949Z,101784.78
2023-09-24T08:43:11.735Z,101786.59
2023-09-24T08:45:38.897Z,101783.94
2023-09-24T08:48:08.990Z,101783.06
2023-09-24T08:50:40.777Z,101787.47
2023-09-24T08:53:11.936Z,101783.69
2023-09-24T08:55:39.736Z,101790.31
2023-09-24T08:58:06.563Z,101792.16
2023-09-24T09:00:33.312Z,101796.66
2023-09-24T09:03:03.365Z,101793.66
2023-09-24T09:05:30.182Z,101797.06
2023-09-24T09:07:59.797Z,101791.88
2023-09-24T09:10:30.804Z,101786.44
2023-09-24T09:13:26.728Z,101786.13
2023-09-24T09:16:02.141Z,101787.31
2023-09-24T09:18:30.000Z,101780.63
2023-09-24T09:21:02.502Z,101769.69
2023-09-24T09:23:40.237Z,101774.44
2023-09-24T09:26:07.239Z,101767.81
2023-09-24T09:28:36.148Z,101769.97
2023-09-24T09:31:07.660Z,101772.75
2023-09-24T09:33:42.901Z,101777.25
2023-09-24T09:36:21.995Z,101765.13
2023-09-24T09:38:48.911Z,101769.38
2023-09-24T09:41:17.699Z,101765.44
2023-09-24T09:43:46.692Z,101766.81
2023-09-24T09:46:13.370Z,101756.59
2023-09-24T09:48:46.287Z,101749.59
2023-09-24T09:51:15.301Z,101756.44
2023-09-24T09:53:43.779Z,101754.88
2023-09-24T09:56:11.187Z,101756.44
2023-09-24T09:58:38.458Z,101755.03
2023-09-24T10:01:05.869Z,101754.00
2023-09-24T10:03:35.032Z,101750.91
2023-09-24T10:06:02.253Z,101753.91
2023-09-24T10:08:38.795Z,101754.38
2023-09-24T10:11:05.995Z,101753.06
2023-09-24T10:13:41.592Z,101752.28
2023-09-24T10:16:26.544Z,101761.69
2023-09-24T10:18:57.246Z,101755.38
2023-09-24T10:21:33.707Z,101761.09
2023-09-24T10:24:01.070Z,101758.84
2023-09-24T10:26:50.915Z,101757.09
2023-09-24T10:29:18.692Z,101760.72
2023-09-24T10:32:04.399Z,101762.97
2023-09-24T10:34:51.015Z,101762.72
2023-09-24T10:37:18.875Z,101764.84
2023-09-24T10:40:06.799Z,101763.06
2023-09-24T10:42:34.811Z,101757.06
2023-09-24T10:45:07.757Z,101750.28
2023-09-24T10:47:42.481Z,101751.25
2023-09-24T10:50:13.871Z,101747.28
2023-09-24T10:52:47.611Z,101750.72
2023-09-24T10:55:14.574Z,101749.41
2023-09-24T10:57:44.530Z,101748.53
2023-09-24T11:00:16.487Z,101749.81
2023-09-24T11:02:44.003Z,101745.22
2023-09-24T11:05:10.963Z,101750.19
2023-09-24T11:07:37.702Z,101753.25
2023-09-24T11:10:04.422Z,101758.25
2023-09-24T11:12:31.005Z,101746.41
2023-09-24T11:15:14.384Z,101748.25
2023-09-24T11:17:43.290Z,101745.88
2023-09-24T11:20:10.223Z,101748.56
2023-09-24T11:22:36.874Z,101756.00
2023-09-24T11:25:12.861Z,101753.72
2023-09-24T11:27:46.517Z,101750.66
2023-09-24T11:30:13.408Z,101755.47
2023-09-24T11:32:40.074Z,101748.72
2023-09-24T11:35:07.973Z,101754.41
2023-09-24T11:37:53.799Z,101739.84
2023-09-24T11:40:36.856Z,101740.16
2023-09-24T11:43:06.568Z,101744.09
2023-09-24T11:45:43.782Z,101746.19
2023-09-24T11:48:15.319Z,101738.25
2023-09-24T11:50:44.442Z,101747.47
2023-09-24T11:53:11.568Z,101741.09
2023-09-24T11:55:38.373Z,101738.97
2023-09-24T11:58:06.725Z,101740.75
2023-09-24T12:00:34.664Z,101733.63
2023-09-24T12:03:02.035Z,101732.38
2023-09-24T12:05:33.870Z,101728.09
2023-09-24T12:08:01.553Z,101727.56
2023-09-24T12:10:28.167Z,101730.25
2023-09-24T12:12:54.867Z,101724.94
2023-09-24T12:15:21.538Z,101729.06
2023-09-24T12:17:48.474Z,101717.84
2023-09-24T12:20:15.399Z,101726.78
2023-09-24T12:22:45.382Z,101712.56
2023-09-24T12:25:12.252Z,101719.56
2023-09-24T12:27:39.437Z,101727.66
2023-09-24T12:30:06.445Z,101724.22
2023-09-24T12:32:33.779Z,101723.34
2023-09-24T12:35:00.507Z,101730.25
2023-09-24T12:37:27.237Z,101725.44
2023-09-24T12:39:53.912Z,101727.91
2023-09-24T12:42:20.813Z,101721.28
2023-09-24T12:44:47.450Z,101727.34
2023-09-24T12:47:14.166Z,101714.31
2023-09-24T12:49:41.107Z,101714.09
2023-09-24T12:52:07.745Z,101718.16
2023-09-24T12:54:34.366Z,101714.63
2023-09-24T12:57:01.056Z,101722.72
2023-09-24T12:59:27.681Z,101720.38
2023-09-24T13:01:54.272Z,101726.66
2023-09-24T13:04:23.807Z,101728.38
2023-09-24T13:06:51.006Z,101718.69
2023-09-24T13:09:21.703Z,101717.31
2023-09-24T13:11:49.270Z,101724.91
2023-09-24T13:14:15.959Z,101724.31
2023-09-24T13:16:43.211Z,101723.00
2023-09-24T13:19:12.875Z,101717.41
2023-09-24T13:21:40.481Z,101721.22
2023-09-24T13:24:08.234Z,101717.72
2023-09-24T13:26:35.520Z,101724.34
2023-09-24T13:29:02.176Z,101709.22
2023-09-24T13:31:28.835Z,101714.13
2023-09-24T13:33:55.614Z,101717.59
2023-09-24T13:36:23.629Z,101711.44
2023-09-24T13:38:51.100Z,101714.91
2023-09-24T13:41:17.821Z,101707.78
2023-09-24T13:43:44.380Z,101709.78
2023-09-24T13:46:11.460Z,101696.63
2023-09-24T13:48:38.228Z,101705.38
2023-09-24T13:51:05.118Z,101695.34
2023-09-24T13:53:31.676Z,101708.78
2023-09-24T13:55:58.386Z,101698.72
2023-09-24T13:58:25.005Z,101687.50
2023-09-24T14:00:53.257Z,101690.25
2023-09-24T14:03:21.300Z,101691.75
2023-09-24T14:05:48.382Z,101696.16
2023-09-24T14:08:33.375Z,101690.97
2023-09-24T14:11:18.772Z,101690.97
2023-09-24T14:13:48.801Z,101693.22
2023-09-24T14:16:15.613Z,101690.84
2023-09-24T14:18:42.609Z,101689.41
2023-09-24T14:21:10.549Z,101685.88
2023-09-24T14:23:37.172Z,101690.38
2023-09-24T14:26:03.811Z,101687.47
2023-09-24T14:28:30.402Z,101688.88
2023-09-24T14:30:57.046Z,101685.44
2023-09-24T14:33:23.810Z,101698.63
2023-09-24T14:35:56.579Z,101693.56
2023-09-24T14:38:23.192Z,101693.38
2023-09-24T14:40:50.072Z,101704.50
2023-09-24T14:43:16.813Z,101704.03
2023-09-24T14:45:44.286Z,101701.84
2023-09-24T14:48:10.980Z,101695.72
2023-09-24T14:50:42.072Z,101695.72
2023-09-24T14:53:08.708Z,101696.53
2023-09-24T14:55:41.149Z,101698.97
2023-09-24T14:58:07.828Z,101695.44
2023-09-24T15:00:34.435Z,101689.88
2023-09-24T15:03:01.272Z,101693.06
2023-09-24T15:05:28.036Z,101689.88
2023-09-24T15:07:54.676Z,101691.03
2023-09-24T15:10:21.414Z,101683.03
2023-09-24T15:12:48.104Z,101687.72
2023-09-24T15:15:14.702Z,101682.75
2023-09-24T15:17:41.557Z,101691.75
2023-09-24T15:20:08.347Z,101694.91
2023-09-24T15:22:35.017Z,101680.53
2023-09-24T15:25:01.560Z,101693.91
2023-09-24T15:27:28.476Z,101688.31
2023-09-24T15:29:55.097Z,101684.03
2023-09-24T15:32:21.959Z,101675.03
2023-09-24T15:34:48.638Z,101682.50
2023-09-24T15:37:15.286Z,101686.78
2023-09-24T15:39:41.850Z,101689.03
2023-09-24T15:42:08.490Z,101681.78
2023-09-24T15:44:35.070Z,101687.91
2023-09-24T15:47:01.655Z,101697.16
2023-09-24T15:49:29.577Z,101686.78
2023-09-24T15:51:56.174Z,101690.81
2023-09-24T15:54:22.871Z,101690.88
2023-09-24T15:56:51.681Z,101687.97
2023-09-24T15:59:18.275Z,101684.88
2023-09-24T16:01:44.933Z,101687.97
2023-09-24T16:04:11.558Z,101688.81
2023-09-24T16:06:38.280Z,101699.38
2023-09-24T16:09:05.072Z,101698.22
2023-09-24T16:11:31.807Z,101699.25
2023-09-24T16:13:58.390Z,101700.03
2023-09-24T16:16:25.072Z,101701.97
2023-09-24T16:18:53.364Z,101700.50
2023-09-24T16:21:20.006Z,101706.06
2023-09-24T16:23:46.811Z,101703.78
2023-09-24T16:26:14.557Z,101701.03
2023-09-24T16:28:42.946Z,101698.69
2023-09-24T16:31:09.922Z,101707.72
2023-09-24T16:33:36.612Z,101702.69
2023-09-24T16:36:06.142Z,101708.75
2023-09-24T16:38:32.936Z,101708.53
2023-09-24T16:40:59.951Z,101707.72
2023-09-24T16:43:26.624Z,101714.06
2023-09-24T16:45:53.538Z,101708.16
2023-09-24T16:48:20.683Z,101711.66
2023-09-24T16:50:53.235Z,101713.59
2023-09-24T16:53:20.054Z,101708.91
2023-09-24T16:55:46.602Z,101717.59
2023-09-24T16:58:13.259Z,101719.88
2023-09-24T17:00:39.792Z,101714.53
2023-09-24T17:03:06.614Z,101718.50
2023-09-24T17:05:37.195Z,101723.59
2023-09-24T17:08:05.251Z,101719.63
2023-09-24T17:10:32.226Z,101717.22
2023-09-24T17:12:58.991Z,101711.66
2023-09-24T17:15:29.277Z,101717.78
2023-09-24T17:17:58.324Z,101722.03
2023-09-24T17:20:25.372Z,101719.91
2023-09-24T17:22:52.576Z,101719.91
2023-09-24T17:25:19.198Z,101721.88
2023-09-24T17:27:46.633Z,101720.06
2023-09-24T17:30:13.983Z,101721.06
2023-09-24T17:32:40.930Z,101725.22
2023-09-24T17:35:08.027Z,101724.88
2023-09-24T17:37:34.720Z,101726.78
2023-09-24T17:40:01.440Z,101724.03
2023-09-24T17:42:29.236Z,101723.72
2023-09-24T17:44:55.962Z,101729.38
2023-09-24T17:47:22.622Z,101726.03
2023-09-24T17:49:49.284Z,101735.53
2023-09-24T17:52:15.893Z,101729.22
2023-09-24T17:54:42.535Z,101743.81
2023-09-24T17:57:09.220Z,101735.69
2023-09-24T17:59:35.820Z,101750.47
2023-09-24T18:02:02.434Z,101742.88
2023-09-24T18:04:29.203Z,101742.16
2023-09-24T18:06:55.904Z,101743.84
2023-09-24T18:09:22.539Z,101741.88
2023-09-24T18:11:49.154Z,101745.13
2023-09-24T18:14:15.728Z,101739.72
2023-09-24T18:16:42.488Z,101746.91
2023-09-24T18:19:09.249Z,101748.63
2023-09-24T18:21:35.878Z,101741.56
2023-09-24T18:24:02.716Z,101737.22
2023-09-24T18:26:29.380Z,101745.66
2023-09-24T18:28:55.990Z,101742.41
2023-09-24T18:31:22.656Z,101747.97
2023-09-24T18:33:49.534Z,101755.38
2023-09-24T18:36:16.407Z,101752.28
2023-09-24T18:38:43.082Z,101756.44
2023-09-24T18:41:12.809Z,101749.63
2023-09-24T18:43:39.363Z,101761.34
2023-09-24T18:46:06.101Z,101753.91
2023-09-24T18:48:33.989Z,101755.13
2023-09-24T18:51:01.273Z,101760.34
2023-09-24T18:53:28.156Z,101773.06
2023-09-24T18:56:04.310Z,101768.41
2023-09-24T18:58:33.124Z,101767.34
2023-09-24T19:01:00.032Z,101759.06
2023-09-24T19:03:27.034Z,101766.16
2023-09-24T19:05:54.325Z,101763.47
2023-09-24T19:08:20.915Z,101762.56
2023-09-24T19:10:53.587Z,101767.53
2023-09-24T19:13:20.213Z,101761.88
2023-09-24T19:15:46.810Z,101758.53
2023-09-24T19:18:13.642Z,101775.47
2023-09-24T19:20:40.325Z,101769.06
2023-09-24T19:23:06.932Z,101770.28
2023-09-24T19:25:35.177Z,101768.72
2023-09-24T19:28:01.828Z,101767.19
2023-09-24T19:30:29.324Z,101773.19
2023-09-24T19:32:56.117Z,101775.47
2023-09-24T19:35:22.797Z,101778.34
2023-09-24T19:37:49.385Z,101776.38
2023-09-24T19:40:16.094Z,101777.72
2023-09-24T19:42:42.720Z,101781.94
2023-09-24T19:45:10.083Z,101780.38
2023-09-24T19:47:36.901Z,101784.78
2023-09-24T19:50:03.764Z,101783.69
2023-09-24T19:52:30.391Z,101792.38
2023-09-24T19:54:57.023Z,101786.63
2023-09-24T19:57:23.780Z,101789.94
2023-09-24T19:59:50.391Z,101788.94
2023-09-24T20:02:17.662Z,101789.00
2023-09-24T20:04:44.275Z,101792.72
2023-09-24T20:07:10.909Z,101788.88
2023-09-24T20:09:42.971Z,101786.19
2023-09-24T20:12:09.617Z,101783.03
2023-09-24T20:14:37.732Z,101786.63
2023-09-24T20:17:04.467Z,101788.28
2023-09-24T20:19:31.078Z,101788.38
2023-09-24T20:21:58.729Z,101793.94
2023-09-24T20:24:27.608Z,101783.56
2023-09-24T20:26:54.297Z,101777.97
2023-09-24T20:29:20.845Z,101779.69
2023-09-24T20:31:47.631Z,101779.81
2023-09-24T20:34:16.567Z,101782.13
2023-09-24T20:36:43.417Z,101788.03
2023-09-24T20:39:10.062Z,101788.63
2023-09-24T20:41:37.001Z,101789.28
2023-09-24T20:44:04.141Z,101785.84
2023-09-24T20:46:34.934Z,101792.59
2023-09-24T20:49:02.090Z,101794.22
2023-09-24T20:51:28.773Z,101792.28
2023-09-24T20:53:55.627Z,101800.44
2023-09-24T20:56:22.388Z,101795.00
2023-09-24T20:58:49.530Z,101803.16
2023-09-24T21:01:19.295Z,101793.38
2023-09-24T21:03:47.032Z,101796.56
2023-09-24T21:06:14.257Z,101794.13
2023-09-24T21:08:40.990Z,101803.41
2023-09-24T21:11:07.590Z,101794.34
2023-09-24T21:13:34.347Z,101790.13
2023-09-24T21:16:01.892Z,101783.56
2023-09-24T21:18:28.661Z,101791.69
2023-09-24T21:20:56.101Z,101795.03
2023-09-24T21:23:22.833Z,101793.69
2023-09-24T21:25:49.801Z,101788.66
2023-09-24T21:28:16.421Z,101793.81
2023-09-24T21:30:42.984Z,101790.06
2023-09-24T21:33:09.828Z,101794.84
2023-09-24T21:35:36.573Z,101802.09
2023-09-24T21:38:03.960Z,101795.03
2023-09-24T21:40:30.630Z,101797.94
2023-09-24T21:42:57.207Z,101790.03
2023-09-24T21:45:23.867Z,101796.34
2023-09-24T21:47:50.633Z,101788.50
2023-09-24T21:50:17.233Z,101791.56
2023-09-24T21:52:43.809Z,101791.09
2023-09-24T21:55:10.466Z,101794.25
2023-09-24T21:57:37.396Z,101789.59
2023-09-24T22:00:12.079Z,101790.03
2023-09-24T22:02:39.056Z,101795.69
2023-09-24T22:05:06.454Z,101796.22
2023-09-24T22:07:33.265Z,101795.50
2023-09-24T22:09:59.804Z,101791.09
2023-09-24T22:12:26.569Z,101785.91
2023-09-24T22:14:53.155Z,101782.50
2023-09-24T22:17:19.748Z,101783.00
2023-09-24T22:19:46.315Z,101779.56
2023-09-24T22:22:12.981Z,101778.75
2023-09-24T22:24:39.668Z,101786.31
2023-09-24T22:27:06.365Z,101783.25
2023-09-24T22:29:32.959Z,101771.97
2023-09-24T22:31:59.610Z,101772.75
2023-09-24T22:34:26.303Z,101774.84
2023-09-24T22:36:52.911Z,101763.97
2023-09-24T22:39:19.530Z,101762.56
2023-09-24T22:41:47.942Z,101761.72
2023-09-24T22:44:14.560Z,101761.28
2023-09-24T22:46:41.164Z,101764.59
2023-09-24T22:49:07.787Z,101763.63
2023-09-24T22:51:34.473Z,101756.31
2023-09-24T22:54:01.252Z,101753.69
2023-09-24T22:56:27.898Z,101749.94
2023-09-24T22:58:54.508Z,101748.13
2023-09-24T23:01:21.098Z,101741.03
2023-09-24T23:03:48.867Z,101736.34
2023-09-24T23:06:15.868Z,101736.56
2023-09-24T23:08:42.461Z,101744.16
2023-09-24T23:11:09.104Z,101738.66
2023-09-24T23:13:35.719Z,101737.31
2023-09-24T23:16:02.688Z,101730.00
2023-09-24T23:18:29.762Z,101724.59
2023-09-24T23:20:56.448Z,101724.28
2023-09-24T23:23:23.077Z,101725.53
2023-09-24T23:25:51.594Z,101730.66
2023-09-24T23:28:18.285Z,101725.69
2023-09-24T23:30:45.683Z,101724.78
2023-09-24T23:33:13.077Z,101729.63
2023-09-24T23:35:43.687Z,101731.09
2023-09-24T23:38:10.370Z,101727.28
2023-09-24T23:40:37.657Z,101728.50
2023-09-24T23:43:05.790Z,101731.06
2023-09-24T23:45:37.061Z,101728.94
2023-09-24T23:48:08.714Z,101727.09
2023-09-24T23:50:39.309Z,101731.38
2023-09-24T23:53:07.449Z,101734.22
2023-09-24T23:55:35.507Z,101732.84
2023-09-24T23:58:02.531Z,101722.25
